sensor_id;sensor_type;location;lat;lon;timestamp;pressure;altitude;pressure_sealevel;temperature;humidity
22181;BME280;11256;50.830;12.834;2023-04-04T00:02:22;98707.72;;;3.22;60.07
22181;BME280;11256;50.830;12.834;2023-04-04T00:07:22;98707.53;;;3.24;60.42
22181;BME280;11256;50.830;12.834;2023-04-04T00:12:23;98702.16;;;3.24;60.45
22181;BME280;11256;50.830;12.834;2023-04-04T00:17:23;98695.97;;;3.23;60.06
22181;BME280;11256;50.830;12.834;2023-04-04T00:22:23;98689.41;;;3.19;60.28
22181;BME280;11256;50.830;12.834;2023-04-04T00:27:24;98690.66;;;3.17;60.36
22181;BME280;11256;50.830;12.834;2023-04-04T00:32:24;98670.47;;;3.08;60.00
22181;BME280;11256;50.830;12.834;2023-04-04T00:37:25;98687.16;;;3.16;60.41
22181;BME280;11256;50.830;12.834;2023-04-04T00:42:27;98669.88;;;3.06;60.37
22181;BME280;11256;50.830;12.834;2023-04-04T00:47:29;98686.75;;;3.13;60.68
22181;BME280;11256;50.830;12.834;2023-04-04T00:52:29;98684.28;;;3.11;60.36
22181;BME280;11256;50.830;12.834;2023-04-04T00:57:31;98680.16;;;3.09;60.51
22181;BME280;11256;50.830;12.834;2023-04-04T01:02:34;98657.72;;;2.97;60.07
22181;BME280;11256;50.830;12.834;2023-04-04T01:07:34;98679.94;;;3.04;60.64
22181;BME280;11256;50.830;12.834;2023-04-04T01:12:36;98676.06;;;3.00;60.41
22181;BME280;11256;50.830;12.834;2023-04-04T01:17:36;98682.66;;;2.97;60.72
22181;BME280;11256;50.830;12.834;2023-04-04T01:22:37;98659.59;;;2.90;60.49
22181;BME280;11256;50.830;12.834;2023-04-04T01:27:39;98649.72;;;2.84;60.91
22181;BME280;11256;50.830;12.834;2023-04-04T01:32:53;98660.63;;;2.95;60.85
22181;BME280;11256;50.830;12.834;2023-04-04T01:38:24;98656.09;;;2.96;60.91
22181;BME280;11256;50.830;12.834;2023-04-04T01:43:29;98639.84;;;2.84;61.17
22181;BME280;11256;50.830;12.834;2023-04-04T01:48:31;98643.94;;;2.93;61.30
22181;BME280;11256;50.830;12.834;2023-04-04T01:53:37;98655.88;;;2.91;61.40
22181;BME280;11256;50.830;12.834;2023-04-04T01:58:38;98647.66;;;2.92;61.34
22181;BME280;11256;50.830;12.834;2023-04-04T02:03:38;98651.78;;;2.95;61.41
22181;BME280;11256;50.830;12.834;2023-04-04T02:08:39;98635.09;;;2.93;61.35
22181;BME280;11256;50.830;12.834;2023-04-04T02:13:39;98646.81;;;2.92;62.03
22181;BME280;11256;50.830;12.834;2023-04-04T02:18:43;98620.09;;;2.79;61.20
22181;BME280;11256;50.830;12.834;2023-04-04T02:23:44;98643.53;;;2.90;61.32
22181;BME280;11256;50.830;12.834;2023-04-04T02:28:44;98621.53;;;2.75;61.38
22181;BME280;11256;50.830;12.834;2023-04-04T02:33:45;98628.31;;;2.84;61.77
22181;BME280;11256;50.830;12.834;2023-04-04T02:38:45;98631.00;;;2.84;61.58
22181;BME280;11256;50.830;12.834;2023-04-04T02:43:46;98634.09;;;2.87;61.64
22181;BME280;11256;50.830;12.834;2023-04-04T02:48:47;98623.56;;;2.86;61.82
22181;BME280;11256;50.830;12.834;2023-04-04T02:53:47;98613.09;;;2.78;61.79
22181;BME280;11256;50.830;12.834;2023-04-04T02:58:54;98622.13;;;2.90;62.08
22181;BME280;11256;50.830;12.834;2023-04-04T03:03:54;98615.53;;;2.86;61.92
22181;BME280;11256;50.830;12.834;2023-04-04T03:08:56;98627.09;;;2.86;62.18
22181;BME280;11256;50.830;12.834;2023-04-04T03:13:56;98614.50;;;2.87;61.83
22181;BME280;11256;50.830;12.834;2023-04-04T03:19:05;98610.59;;;2.89;61.74
22181;BME280;11256;50.830;12.834;2023-04-04T03:24:06;98587.16;;;2.72;61.94
22181;BME280;11256;50.830;12.834;2023-04-04T03:29:07;98601.97;;;2.81;61.72
22181;BME280;11256;50.830;12.834;2023-04-04T03:34:07;98597.44;;;2.81;61.87
22181;BME280;11256;50.830;12.834;2023-04-04T03:39:08;98604.88;;;2.73;62.21
22181;BME280;11256;50.830;12.834;2023-04-04T03:44:09;98581.84;;;2.59;61.96
22181;BME280;11256;50.830;12.834;2023-04-04T03:49:09;98595.00;;;2.67;62.06
22181;BME280;11256;50.830;12.834;2023-04-04T03:54:10;98577.72;;;2.50;62.45
22181;BME280;11256;50.830;12.834;2023-04-04T03:59:10;98574.44;;;2.48;62.58
22181;BME280;11256;50.830;12.834;2023-04-04T04:04:10;98592.53;;;2.59;62.46
22181;BME280;11256;50.830;12.834;2023-04-04T04:09:14;98590.28;;;2.56;62.56
22181;BME280;11256;50.830;12.834;2023-04-04T04:14:14;98588.41;;;2.56;63.09
22181;BME280;11256;50.830;12.834;2023-04-04T04:19:14;98581.63;;;2.54;62.63
22181;BME280;11256;50.830;12.834;2023-04-04T04:24:16;98584.31;;;2.54;62.94
22181;BME280;11256;50.830;12.834;2023-04-04T04:29:17;98552.44;;;2.33;62.72
22181;BME280;11256;50.830;12.834;2023-04-04T04:34:17;98588.41;;;2.50;62.99
22181;BME280;11256;50.830;12.834;2023-04-04T04:39:18;98587.81;;;2.48;62.88
22181;BME280;11256;50.830;12.834;2023-04-04T04:44:34;98582.66;;;2.46;62.99
22181;BME280;11256;50.830;12.834;2023-04-04T04:49:34;98590.50;;;2.48;63.34
22181;BME280;11256;50.830;12.834;2023-04-04T04:54:39;98588.84;;;2.47;63.48
22181;BME280;11256;50.830;12.834;2023-04-04T04:59:40;98591.72;;;2.45;63.04
22181;BME280;11256;50.830;12.834;2023-04-04T05:04:41;98577.13;;;2.35;63.74
22181;BME280;11256;50.830;12.834;2023-04-04T05:09:44;98597.91;;;2.46;63.34
22181;BME280;11256;50.830;12.834;2023-04-04T05:14:46;98606.94;;;2.45;63.94
22181;BME280;11256;50.830;12.834;2023-04-04T05:19:47;98618.88;;;2.49;64.02
22181;BME280;11256;50.830;12.834;2023-04-04T05:24:51;98595.03;;;2.41;63.71
22181;BME280;11256;50.830;12.834;2023-04-04T05:29:56;98606.94;;;2.45;63.79
22181;BME280;11256;50.830;12.834;2023-04-04T05:34:58;98623.81;;;2.52;63.62
22181;BME280;11256;50.830;12.834;2023-04-04T05:39:58;98628.75;;;2.55;63.67
22181;BME280;11256;50.830;12.834;2023-04-04T05:45:00;98623.81;;;2.52;63.78
22181;BME280;11256;50.830;12.834;2023-04-04T05:50:04;98601.59;;;2.38;63.63
22181;BME280;11256;50.830;12.834;2023-04-04T05:55:07;98630.41;;;2.56;63.95
22181;BME280;11256;50.830;12.834;2023-04-04T06:00:08;98619.31;;;2.46;64.23
22181;BME280;11256;50.830;12.834;2023-04-04T06:05:14;98612.72;;;2.48;64.15
22181;BME280;11256;50.830;12.834;2023-04-04T06:10:15;98629.78;;;2.60;64.42
22181;BME280;11256;50.830;12.834;2023-04-04T06:15:16;98631.63;;;2.66;64.04
22181;BME280;11256;50.830;12.834;2023-04-04T06:20:17;98643.34;;;2.72;64.10
22181;BME280;11256;50.830;12.834;2023-04-04T06:25:20;98631.00;;;2.71;64.17
22181;BME280;11256;50.830;12.834;2023-04-04T06:30:21;98629.38;;;2.76;64.60
22181;BME280;11256;50.830;12.834;2023-04-04T06:35:24;98615.16;;;2.69;64.04
22181;BME280;11256;50.830;12.834;2023-04-04T06:40:31;98618.84;;;2.75;64.16
22181;BME280;11256;50.830;12.834;2023-04-04T06:45:33;98623.97;;;2.83;64.53
22181;BME280;11256;50.830;12.834;2023-04-04T06:50:34;98633.44;;;2.98;64.33
22181;BME280;11256;50.830;12.834;2023-04-04T06:55:38;98625.81;;;2.95;64.81
22181;BME280;11256;50.830;12.834;2023-04-04T07:00:39;98627.44;;;3.03;64.10
22181;BME280;11256;50.830;12.834;2023-04-04T07:05:40;98626.19;;;3.12;64.70
22181;BME280;11256;50.830;12.834;2023-04-04T07:10:40;98619.81;;;3.13;65.00
22181;BME280;11256;50.830;12.834;2023-04-04T07:15:44;98614.00;;;3.29;64.79
22181;BME280;11256;50.830;12.834;2023-04-04T07:20:47;98628.75;;;3.44;64.29
22181;BME280;11256;50.830;12.834;2023-04-04T07:25:48;98612.47;;;3.46;64.48
22181;BME280;11256;50.830;12.834;2023-04-04T07:30:48;98635.81;;;3.83;65.19
22181;BME280;11256;50.830;12.834;2023-04-04T07:35:48;98634.53;;;4.47;67.87
22181;BME280;11256;50.830;12.834;2023-04-04T07:40:49;98640.44;;;5.05;66.65
22181;BME280;11256;50.830;12.834;2023-04-04T07:45:49;98612.56;;;5.24;64.84
22181;BME280;11256;50.830;12.834;2023-04-04T07:50:50;98606.41;;;5.53;64.23
22181;BME280;11256;50.830;12.834;2023-04-04T07:55:50;98627.13;;;6.41;65.77
22181;BME280;11256;50.830;12.834;2023-04-04T08:00:50;98622.00;;;7.54;65.27
22181;BME280;11256;50.830;12.834;2023-04-04T08:05:50;98619.19;;;9.11;63.04
22181;BME280;11256;50.830;12.834;2023-04-04T08:10:51;98626.97;;;10.58;61.33
22181;BME280;11256;50.830;12.834;2023-04-04T08:15:51;98597.72;;;11.33;55.39
22181;BME280;11256;50.830;12.834;2023-04-04T08:20:51;98623.31;;;12.03;54.28
22181;BME280;11256;50.830;12.834;2023-04-04T08:25:52;98621.91;;;11.91;52.13
22181;BME280;11256;50.830;12.834;2023-04-04T08:30:53;98604.88;;;11.54;51.58
22181;BME280;11256;50.830;12.834;2023-04-04T08:35:54;98626.50;;;11.34;51.38
22181;BME280;11256;50.830;12.834;2023-04-04T08:40:56;98594.94;;;10.55;50.93
22181;BME280;11256;50.830;12.834;2023-04-04T08:45:58;98621.16;;;10.44;50.71
22181;BME280;11256;50.830;12.834;2023-04-04T08:50:59;98605.75;;;10.02;50.75
22181;BME280;11256;50.830;12.834;2023-04-04T08:56:01;98619.44;;;9.90;52.29
22181;BME280;11256;50.830;12.834;2023-04-04T09:01:01;98620.72;;;10.84;51.77
22181;BME280;11256;50.830;12.834;2023-04-04T09:06:03;98601.09;;;11.55;50.21
22181;BME280;11256;50.830;12.834;2023-04-04T09:11:04;98599.16;;;12.07;50.65
22181;BME280;11256;50.830;12.834;2023-04-04T09:16:05;98608.91;;;12.03;46.89
22181;BME280;11256;50.830;12.834;2023-04-04T09:21:12;98569.06;;;12.58;48.28
22181;BME280;11256;50.830;12.834;2023-04-04T09:26:12;98613.97;;;12.76;47.80
22181;BME280;11256;50.830;12.834;2023-04-04T09:31:13;98606.25;;;12.23;45.94
22181;BME280;11256;50.830;12.834;2023-04-04T09:36:14;98596.88;;;11.74;45.87
22181;BME280;11256;50.830;12.834;2023-04-04T09:41:15;98599.22;;;11.14;46.76
22181;BME280;11256;50.830;12.834;2023-04-04T09:46:18;98604.94;;;10.81;47.57
22181;BME280;11256;50.830;12.834;2023-04-04T09:51:19;98604.78;;;10.34;48.01
22181;BME280;11256;50.830;12.834;2023-04-04T09:56:20;98594.00;;;10.13;47.75
22181;BME280;11256;50.830;12.834;2023-04-04T10:01:22;98609.38;;;10.34;48.45
22181;BME280;11256;50.830;12.834;2023-04-04T10:06:22;98621.28;;;9.85;42.05
22181;BME280;11256;50.830;12.834;2023-04-04T10:11:30;98595.16;;;9.74;45.10
22181;BME280;11256;50.830;12.834;2023-04-04T10:16:33;98611.69;;;9.99;47.66
22181;BME280;11256;50.830;12.834;2023-04-04T10:21:36;98612.09;;;9.86;47.30
22181;BME280;11256;50.830;12.834;2023-04-04T10:26:36;98615.75;;;9.75;47.15
22181;BME280;11256;50.830;12.834;2023-04-04T10:31:39;98592.22;;;9.54;46.47
22181;BME280;11256;50.830;12.834;2023-04-04T10:36:45;98608.75;;;9.57;48.17
22181;BME280;11256;50.830;12.834;2023-04-04T10:41:50;98597.69;;;9.59;48.30
22181;BME280;11256;50.830;12.834;2023-04-04T10:46:52;98582.63;;;9.68;50.00
22181;BME280;11256;50.830;12.834;2023-04-04T10:51:53;98591.50;;;9.63;49.15
22181;BME280;11256;50.830;12.834;2023-04-04T10:56:56;98578.34;;;9.72;49.63
22181;BME280;11256;50.830;12.834;2023-04-04T11:02:01;98600.25;;;9.92;48.77
22181;BME280;11256;50.830;12.834;2023-04-04T11:12:09;98586.47;;;9.72;49.00
22181;BME280;11256;50.830;12.834;2023-04-04T11:17:14;98578.22;;;9.83;50.07
22181;BME280;11256;50.830;12.834;2023-04-04T11:22:14;98565.63;;;9.94;50.37
22181;BME280;11256;50.830;12.834;2023-04-04T11:27:15;98586.34;;;10.05;50.25
22181;BME280;11256;50.830;12.834;2023-04-04T11:32:40;98580.44;;;10.13;50.45
22181;BME280;11256;50.830;12.834;2023-04-04T11:42:52;98553.06;;;10.09;50.17
22181;BME280;11256;50.830;12.834;2023-04-04T11:47:56;98560.19;;;9.67;48.22
22181;BME280;11256;50.830;12.834;2023-04-04T11:52:56;98567.50;;;9.93;48.83
22181;BME280;11256;50.830;12.834;2023-04-04T11:58:05;98560.84;;;10.27;50.79
22181;BME280;11256;50.830;12.834;2023-04-04T12:03:07;98555.88;;;10.51;49.78
22181;BME280;11256;50.830;12.834;2023-04-04T12:08:10;98553.44;;;10.81;49.10
22181;BME280;11256;50.830;12.834;2023-04-04T12:13:11;98546.72;;;10.88;48.16
22181;BME280;11256;50.830;12.834;2023-04-04T12:18:20;98555.63;;;10.84;48.94
22181;BME280;11256;50.830;12.834;2023-04-04T12:23:21;98539.88;;;10.81;49.01
22181;BME280;11256;50.830;12.834;2023-04-04T12:28:21;98524.50;;;10.55;49.14
22181;BME280;11256;50.830;12.834;2023-04-04T12:33:22;98522.56;;;10.87;50.02
22181;BME280;11256;50.830;12.834;2023-04-04T12:38:22;98525.44;;;11.12;49.83
22181;BME280;11256;50.830;12.834;2023-04-04T12:43:27;98503.66;;;11.02;48.59
22181;BME280;11256;50.830;12.834;2023-04-04T12:48:30;98516.81;;;11.30;48.14
22181;BME280;11256;50.830;12.834;2023-04-04T12:53:31;98505.75;;;11.41;48.24
22181;BME280;11256;50.830;12.834;2023-04-04T12:58:32;98510.16;;;11.52;49.08
22181;BME280;11256;50.830;12.834;2023-04-04T13:03:32;98509.84;;;11.44;43.48
22181;BME280;11256;50.830;12.834;2023-04-04T13:08:33;98483.22;;;11.41;48.84
22181;BME280;11256;50.830;12.834;2023-04-04T13:13:37;98492.19;;;11.41;45.23
22181;BME280;11256;50.830;12.834;2023-04-04T13:18:41;98500.22;;;11.83;48.46
22181;BME280;11256;50.830;12.834;2023-04-04T13:23:42;98498.91;;;12.10;47.85
22181;BME280;11256;50.830;12.834;2023-04-04T13:28:43;98493.47;;;12.20;48.33
22181;BME280;11256;50.830;12.834;2023-04-04T13:33:43;98469.75;;;11.71;44.78
22181;BME280;11256;50.830;12.834;2023-04-04T13:38:43;98484.25;;;12.26;47.73
22181;BME280;11256;50.830;12.834;2023-04-04T13:43:44;98456.22;;;12.56;47.99
22181;BME280;11256;50.830;12.834;2023-04-04T13:48:44;98479.06;;;12.70;48.52
22181;BME280;11256;50.830;12.834;2023-04-04T13:53:44;98445.34;;;12.51;47.40
22181;BME280;11256;50.830;12.834;2023-04-04T13:58:45;98455.69;;;12.59;48.52
22181;BME280;11256;50.830;12.834;2023-04-04T14:03:46;98456.78;;;12.13;46.07
22181;BME280;11256;50.830;12.834;2023-04-04T14:08:46;98436.41;;;12.40;46.53
22181;BME280;11256;50.830;12.834;2023-04-04T14:13:47;98449.69;;;12.47;46.28
22181;BME280;11256;50.830;12.834;2023-04-04T14:18:47;98446.72;;;12.38;46.82
22181;BME280;11256;50.830;12.834;2023-04-04T14:23:48;98433.44;;;12.42;46.79
22181;BME280;11256;50.830;12.834;2023-04-04T14:28:48;98436.41;;;12.10;42.91
22181;BME280;11256;50.830;12.834;2023-04-04T14:33:48;98444.84;;;12.34;46.81
22181;BME280;11256;50.830;12.834;2023-04-04T14:38:49;98439.38;;;12.49;46.02
22181;BME280;11256;50.830;12.834;2023-04-04T14:43:49;98446.72;;;12.53;47.07
22181;BME280;11256;50.830;12.834;2023-04-04T14:48:51;98426.59;;;12.44;47.50
22181;BME280;11256;50.830;12.834;2023-04-04T14:53:52;98438.28;;;12.55;46.76
22181;BME280;11256;50.830;12.834;2023-04-04T14:58:52;98439.34;;;12.69;46.85
22181;BME280;11256;50.830;12.834;2023-04-04T15:03:53;98430.28;;;12.93;47.17
22181;BME280;11256;50.830;12.834;2023-04-04T15:08:55;98413.78;;;12.80;46.76
22181;BME280;11256;50.830;12.834;2023-04-04T15:13:56;98431.13;;;13.04;47.72
22181;BME280;11256;50.830;12.834;2023-04-04T15:19:01;98433.59;;;13.00;47.37
22181;BME280;11256;50.830;12.834;2023-04-04T15:24:01;98416.44;;;12.85;46.48
22181;BME280;11256;50.830;12.834;2023-04-04T15:29:01;98423.53;;;12.86;46.89
22181;BME280;11256;50.830;12.834;2023-04-04T15:34:01;98422.44;;;12.87;46.41
22181;BME280;11256;50.830;12.834;2023-04-04T15:39:02;98417.13;;;12.42;44.88
22181;BME280;11256;50.830;12.834;2023-04-04T15:44:03;98433.38;;;12.62;45.55
22181;BME280;11256;50.830;12.834;2023-04-04T15:49:04;98421.69;;;12.61;45.39
22181;BME280;11256;50.830;12.834;2023-04-04T15:54:05;98417.06;;;12.57;45.19
22181;BME280;11256;50.830;12.834;2023-04-04T15:59:05;98422.50;;;12.57;44.59
22181;BME280;11256;50.830;12.834;2023-04-04T16:04:06;98404.06;;;12.44;44.38
22181;BME280;11256;50.830;12.834;2023-04-04T16:09:06;98401.34;;;12.29;45.11
22181;BME280;11256;50.830;12.834;2023-04-04T16:14:06;98396.75;;;12.24;44.32
22181;BME280;11256;50.830;12.834;2023-04-04T16:19:08;98410.06;;;12.21;44.69
22181;BME280;11256;50.830;12.834;2023-04-04T16:24:09;98405.16;;;12.13;44.87
22181;BME280;11256;50.830;12.834;2023-04-04T16:29:10;98414.41;;;12.07;45.15
22181;BME280;11256;50.830;12.834;2023-04-04T16:34:10;98388.31;;;11.91;44.56
22181;BME280;11256;50.830;12.834;2023-04-04T16:39:10;98403.81;;;11.90;44.60
22181;BME280;11256;50.830;12.834;2023-04-04T16:44:11;98402.97;;;11.80;44.73
22181;BME280;11256;50.830;12.834;2023-04-04T16:49:11;98383.94;;;11.60;44.92
22181;BME280;11256;50.830;12.834;2023-04-04T16:54:12;98381.78;;;11.62;44.82
22181;BME280;11256;50.830;12.834;2023-04-04T16:59:12;98385.28;;;11.52;45.25
22181;BME280;11256;50.830;12.834;2023-04-04T17:04:16;98393.13;;;11.39;45.05
22181;BME280;11256;50.830;12.834;2023-04-04T17:09:16;98385.22;;;11.22;45.28
22181;BME280;11256;50.830;12.834;2023-04-04T17:14:16;98387.06;;;11.07;46.07
22181;BME280;11256;50.830;12.834;2023-04-04T17:19:17;98383.22;;;10.98;45.97
22181;BME280;11256;50.830;12.834;2023-04-04T17:24:18;98371.22;;;10.74;46.26
22181;BME280;11256;50.830;12.834;2023-04-04T17:29:19;98373.84;;;10.59;46.58
22181;BME280;11256;50.830;12.834;2023-04-04T17:34:25;98375.03;;;10.31;45.13
22181;BME280;11256;50.830;12.834;2023-04-04T17:39:26;98382.25;;;10.16;45.86
22181;BME280;11256;50.830;12.834;2023-04-04T17:44:26;98378.00;;;9.98;46.70
22181;BME280;11256;50.830;12.834;2023-04-04T17:49:26;98363.47;;;9.73;46.87
22181;BME280;11256;50.830;12.834;2023-04-04T17:54:27;98384.56;;;9.71;47.23
22181;BME280;11256;50.830;12.834;2023-04-04T17:59:28;98385.25;;;9.56;47.24
22181;BME280;11256;50.830;12.834;2023-04-04T18:04:29;98381.81;;;9.39;47.18
22181;BME280;11256;50.830;12.834;2023-04-04T18:09:29;98369.44;;;9.17;47.45
22181;BME280;11256;50.830;12.834;2023-04-04T18:14:30;98383.72;;;9.12;47.61
22181;BME280;11256;50.830;12.834;2023-04-04T18:19:30;98385.44;;;8.97;47.63
22181;BME280;11256;50.830;12.834;2023-04-04T18:24:31;98370.63;;;8.78;47.63
22181;BME280;11256;50.830;12.834;2023-04-04T18:29:32;98368.56;;;8.63;47.40
22181;BME280;11256;50.830;12.834;2023-04-04T18:34:32;98373.81;;;8.53;47.49
22181;BME280;11256;50.830;12.834;2023-04-04T18:39:33;98376.31;;;8.38;47.52
22181;BME280;11256;50.830;12.834;2023-04-04T18:44:33;98383.94;;;8.25;47.74
22181;BME280;11256;50.830;12.834;2023-04-04T18:49:34;98342.91;;;7.90;48.02
22181;BME280;11256;50.830;12.834;2023-04-04T18:54:35;98374.72;;;7.88;48.06
22181;BME280;11256;50.830;12.834;2023-04-04T18:59:36;98376.75;;;7.81;48.07
22181;BME280;11256;50.830;12.834;2023-04-04T19:04:38;98378.41;;;7.65;48.30
22181;BME280;11256;50.830;12.834;2023-04-04T19:09:39;98387.03;;;7.51;48.34
22181;BME280;11256;50.830;12.834;2023-04-04T19:14:40;98387.91;;;7.40;48.14
22181;BME280;11256;50.830;12.834;2023-04-04T19:19:40;98384.47;;;7.28;48.15
22181;BME280;11256;50.830;12.834;2023-04-04T19:24:42;98370.88;;;7.06;48.67
22181;BME280;11256;50.830;12.834;2023-04-04T19:29:42;98387.28;;;7.05;48.63
22181;BME280;11256;50.830;12.834;2023-04-04T19:34:43;98388.13;;;6.94;48.56
22181;BME280;11256;50.830;12.834;2023-04-04T19:39:44;98386.31;;;6.83;49.08
22181;BME280;11256;50.830;12.834;2023-04-04T19:44:44;98381.19;;;6.70;48.77
22181;BME280;11256;50.830;12.834;2023-04-04T19:49:44;98377.25;;;6.61;49.20
22181;BME280;11256;50.830;12.834;2023-04-04T19:54:45;98358.56;;;6.43;49.02
22181;BME280;11256;50.830;12.834;2023-04-04T20:05:01;98380.66;;;6.33;49.21
22181;BME280;11256;50.830;12.834;2023-04-04T20:10:01;98378.81;;;6.22;49.46
22181;BME280;11256;50.830;12.834;2023-04-04T20:15:13;98382.34;;;6.11;49.33
22181;BME280;11256;50.830;12.834;2023-04-04T20:20:46;98380.34;;;6.07;49.81
22181;BME280;11256;50.830;12.834;2023-04-04T20:25:48;98384.00;;;6.01;49.90
22181;BME280;11256;50.830;12.834;2023-04-04T20:30:52;98364.81;;;5.86;50.22
22181;BME280;11256;50.830;12.834;2023-04-04T20:35:53;98377.53;;;5.90;50.08
22181;BME280;11256;50.830;12.834;2023-04-04T20:40:54;98387.38;;;5.85;50.22
22181;BME280;11256;50.830;12.834;2023-04-04T20:45:54;98380.38;;;5.84;50.15
22181;BME280;11256;50.830;12.834;2023-04-04T20:50:55;98380.81;;;5.81;50.33
22181;BME280;11256;50.830;12.834;2023-04-04T20:55:55;98384.56;;;5.80;50.13
22181;BME280;11256;50.830;12.834;2023-04-04T21:00:58;98383.94;;;5.78;50.18
22181;BME280;11256;50.830;12.834;2023-04-04T21:11:09;98377.03;;;5.59;50.16
22181;BME280;11256;50.830;12.834;2023-04-04T21:16:14;98386.97;;;5.58;50.66
22181;BME280;11256;50.830;12.834;2023-04-04T21:21:18;98390.94;;;5.56;50.99
22181;BME280;11256;50.830;12.834;2023-04-04T21:26:35;98389.16;;;5.50;50.44
22181;BME280;11256;50.830;12.834;2023-04-04T21:31:39;98391.25;;;5.48;50.83
22181;BME280;11256;50.830;12.834;2023-04-04T21:36:40;98363.41;;;5.31;50.53
22181;BME280;11256;50.830;12.834;2023-04-04T21:41:43;98376.41;;;5.34;50.70
22181;BME280;11256;50.830;12.834;2023-04-04T21:46:44;98377.91;;;5.30;51.06
22181;BME280;11256;50.830;12.834;2023-04-04T21:51:45;98368.09;;;5.24;50.88
22181;BME280;11256;50.830;12.834;2023-04-04T21:56:45;98361.75;;;5.18;50.91
22181;BME280;11256;50.830;12.834;2023-04-04T22:01:46;98363.72;;;5.11;51.20
22181;BME280;11256;50.830;12.834;2023-04-04T22:06:46;98338.78;;;4.93;50.87
22181;BME280;11256;50.830;12.834;2023-04-04T22:11:47;98351.78;;;4.96;51.01
22181;BME280;11256;50.830;12.834;2023-04-04T22:16:47;98350.44;;;4.87;51.37
22181;BME280;11256;50.830;12.834;2023-04-04T22:21:47;98354.47;;;4.78;51.16
22181;BME280;11256;50.830;12.834;2023-04-04T22:26:48;98338.78;;;4.63;51.28
22181;BME280;11256;50.830;12.834;2023-04-04T22:31:49;98334.41;;;4.51;51.61
22181;BME280;11256;50.830;12.834;2023-04-04T22:36:49;98351.13;;;4.53;51.14
22181;BME280;11256;50.830;12.834;2023-04-04T22:41:50;98347.31;;;4.42;51.74
22181;BME280;11256;50.830;12.834;2023-04-04T22:46:50;98335.53;;;4.25;51.40
22181;BME280;11256;50.830;12.834;2023-04-04T22:51:51;98344.44;;;4.26;52.03
22181;BME280;11256;50.830;12.834;2023-04-04T22:56:54;98336.88;;;4.16;52.16
22181;BME280;11256;50.830;12.834;2023-04-04T23:01:55;98321.00;;;3.97;51.97
22181;BME280;11256;50.830;12.834;2023-04-04T23:06:56;98349.03;;;4.01;52.08
22181;BME280;11256;50.830;12.834;2023-04-04T23:11:56;98320.78;;;3.80;52.21
22181;BME280;11256;50.830;12.834;2023-04-04T23:16:57;98337.25;;;3.84;52.17
22181;BME280;11256;50.830;12.834;2023-04-04T23:21:58;98329.94;;;3.73;52.73
22181;BME280;11256;50.830;12.834;2023-04-04T23:26:58;98330.00;;;3.66;52.61
22181;BME280;11256;50.830;12.834;2023-04-04T23:31:59;98341.00;;;3.58;52.59
22181;BME280;11256;50.830;12.834;2023-04-04T23:37:00;98327.44;;;3.53;52.97
22181;BME280;11256;50.830;12.834;2023-04-04T23:42:01;98323.19;;;3.46;53.05
22181;BME280;11256;50.830;12.834;2023-04-04T23:47:02;98314.66;;;3.31;52.80
22181;BME280;11256;50.830;12.834;2023-04-04T23:52:04;98322.84;;;3.36;53.29
22181;BME280;11256;50.830;12.834;2023-04-04T23:57:05;98291.78;;;3.10;53.24
